sensor_id;sensor_type;location;lat;lon;timestamp;temperature;humidity
46976;DHT22;32724;51.094;6.996;2023-09-18T00:00:51;21.10;99.90
46976;DHT22;32724;51.094;6.996;2023-09-18T00:03:21;21.00;99.90
46976;DHT22;32724;51.094;6.996;2023-09-18T00:05:50;21.00;99.90
46976;DHT22;32724;51.094;6.996;2023-09-18T00:08:17;20.90;99.90
46976;DHT22;32724;51.094;6.996;2023-09-18T00:10:46;20.80;99.90
46976;DHT22;32724;51.094;6.996;2023-09-18T00:13:13;20.70;99.90
46976;DHT22;32724;51.094;6.996;2023-09-18T00:15:39;20.60;99.90
46976;DHT22;32724;51.094;6.996;2023-09-18T00:18:06;20.50;99.90
46976;DHT22;32724;51.094;6.996;2023-09-18T00:20:32;20.40;99.90
46976;DHT22;32724;51.094;6.996;2023-09-18T00:22:57;20.40;99.90
46976;DHT22;32724;51.094;6.996;2023-09-18T00:25:23;20.30;99.90
46976;DHT22;32724;51.094;6.996;2023-09-18T00:27:49;20.20;99.90
46976;DHT22;32724;51.094;6.996;2023-09-18T00:30:14;20.20;99.90
46976;DHT22;32724;51.094;6.996;2023-09-18T00:32:40;20.10;99.90
46976;DHT22;32724;51.094;6.996;2023-09-18T00:35:06;20.00;99.90
46976;DHT22;32724;51.094;6.996;2023-09-18T00:37:31;19.90;99.90
46976;DHT22;32724;51.094;6.996;2023-09-18T00:39:57;19.80;99.90
46976;DHT22;32724;51.094;6.996;2023-09-18T00:42:22;19.70;99.90
46976;DHT22;32724;51.094;6.996;2023-09-18T00:44:48;19.70;99.90
46976;DHT22;32724;51.094;6.996;2023-09-18T00:47:15;19.60;99.90
46976;DHT22;32724;51.094;6.996;2023-09-18T00:49:44;19.50;99.90
46976;DHT22;32724;51.094;6.996;2023-09-18T00:52:10;19.40;99.90
46976;DHT22;32724;51.094;6.996;2023-09-18T00:54:37;19.40;99.90
46976;DHT22;32724;51.094;6.996;2023-09-18T00:57:04;19.30;99.90
46976;DHT22;32724;51.094;6.996;2023-09-18T00:59:30;19.30;99.90
46976;DHT22;32724;51.094;6.996;2023-09-18T01:01:56;19.20;99.90
46976;DHT22;32724;51.094;6.996;2023-09-18T01:04:22;19.20;99.90
46976;DHT22;32724;51.094;6.996;2023-09-18T01:06:50;19.20;99.90
46976;DHT22;32724;51.094;6.996;2023-09-18T01:09:18;19.10;99.90
46976;DHT22;32724;51.094;6.996;2023-09-18T01:12:08;19.10;99.90
46976;DHT22;32724;51.094;6.996;2023-09-18T01:14:42;19.10;99.90
46976;DHT22;32724;51.094;6.996;2023-09-18T01:17:10;19.00;99.90
46976;DHT22;32724;51.094;6.996;2023-09-18T01:19:40;19.00;99.90
46976;DHT22;32724;51.094;6.996;2023-09-18T01:22:08;19.00;99.90
46976;DHT22;32724;51.094;6.996;2023-09-18T01:24:34;19.00;99.90
46976;DHT22;32724;51.094;6.996;2023-09-18T01:27:00;19.00;99.90
46976;DHT22;32724;51.094;6.996;2023-09-18T01:29:26;18.90;99.90
46976;DHT22;32724;51.094;6.996;2023-09-18T01:31:52;18.90;99.90
46976;DHT22;32724;51.094;6.996;2023-09-18T01:34:42;18.90;99.90
46976;DHT22;32724;51.094;6.996;2023-09-18T01:37:10;18.90;99.90
46976;DHT22;32724;51.094;6.996;2023-09-18T01:39:37;18.80;99.90
46976;DHT22;32724;51.094;6.996;2023-09-18T01:42:05;18.80;99.90
46976;DHT22;32724;51.094;6.996;2023-09-18T01:44:32;18.80;99.90
46976;DHT22;32724;51.094;6.996;2023-09-18T01:46:59;18.80;99.90
46976;DHT22;32724;51.094;6.996;2023-09-18T01:49:34;18.70;99.90
46976;DHT22;32724;51.094;6.996;2023-09-18T01:52:00;18.80;99.90
46976;DHT22;32724;51.094;6.996;2023-09-18T01:54:26;18.80;99.90
46976;DHT22;32724;51.094;6.996;2023-09-18T01:56:52;18.90;99.90
46976;DHT22;32724;51.094;6.996;2023-09-18T01:59:22;19.10;99.90
46976;DHT22;32724;51.094;6.996;2023-09-18T02:01:48;19.30;99.90
46976;DHT22;32724;51.094;6.996;2023-09-18T02:04:13;19.50;99.90
46976;DHT22;32724;51.094;6.996;2023-09-18T02:06:39;19.70;99.90
46976;DHT22;32724;51.094;6.996;2023-09-18T02:09:07;19.90;99.90
46976;DHT22;32724;51.094;6.996;2023-09-18T02:11:39;20.20;99.90
46976;DHT22;32724;51.094;6.996;2023-09-18T02:14:05;20.40;99.90
46976;DHT22;32724;51.094;6.996;2023-09-18T02:16:33;20.50;99.90
46976;DHT22;32724;51.094;6.996;2023-09-18T02:18:58;20.60;99.90
46976;DHT22;32724;51.094;6.996;2023-09-18T02:21:24;20.60;99.90
46976;DHT22;32724;51.094;6.996;2023-09-18T02:23:51;20.70;99.90
46976;DHT22;32724;51.094;6.996;2023-09-18T02:26:17;20.70;99.90
46976;DHT22;32724;51.094;6.996;2023-09-18T02:28:43;20.90;99.90
46976;DHT22;32724;51.094;6.996;2023-09-18T02:31:09;21.00;99.90
46976;DHT22;32724;51.094;6.996;2023-09-18T02:33:34;21.10;99.90
46976;DHT22;32724;51.094;6.996;2023-09-18T02:36:00;21.30;99.90
46976;DHT22;32724;51.094;6.996;2023-09-18T02:38:27;21.40;99.90
46976;DHT22;32724;51.094;6.996;2023-09-18T02:40:53;21.40;99.90
46976;DHT22;32724;51.094;6.996;2023-09-18T02:43:20;21.50;99.90
46976;DHT22;32724;51.094;6.996;2023-09-18T02:45:45;21.50;99.90
46976;DHT22;32724;51.094;6.996;2023-09-18T02:48:11;21.50;99.90
46976;DHT22;32724;51.094;6.996;2023-09-18T02:50:37;21.50;99.90
46976;DHT22;32724;51.094;6.996;2023-09-18T02:53:02;21.50;99.90
46976;DHT22;32724;51.094;6.996;2023-09-18T02:55:28;21.40;99.90
46976;DHT22;32724;51.094;6.996;2023-09-18T02:57:54;21.40;99.90
46976;DHT22;32724;51.094;6.996;2023-09-18T03:00:20;21.40;99.90
46976;DHT22;32724;51.094;6.996;2023-09-18T03:02:46;21.30;99.90
46976;DHT22;32724;51.094;6.996;2023-09-18T03:05:12;21.20;99.90
46976;DHT22;32724;51.094;6.996;2023-09-18T03:07:37;21.20;99.90
46976;DHT22;32724;51.094;6.996;2023-09-18T03:10:03;21.10;99.90
46976;DHT22;32724;51.094;6.996;2023-09-18T03:12:30;21.10;99.90
46976;DHT22;32724;51.094;6.996;2023-09-18T03:14:56;21.00;99.90
46976;DHT22;32724;51.094;6.996;2023-09-18T03:17:21;21.00;99.90
46976;DHT22;32724;51.094;6.996;2023-09-18T03:19:50;21.00;99.90
46976;DHT22;32724;51.094;6.996;2023-09-18T03:22:15;20.90;99.90
46976;DHT22;32724;51.094;6.996;2023-09-18T03:24:41;20.90;99.90
46976;DHT22;32724;51.094;6.996;2023-09-18T03:27:07;20.80;99.90
46976;DHT22;32724;51.094;6.996;2023-09-18T03:29:32;20.70;99.90
46976;DHT22;32724;51.094;6.996;2023-09-18T03:31:58;20.60;99.90
46976;DHT22;32724;51.094;6.996;2023-09-18T03:34:25;20.50;99.90
46976;DHT22;32724;51.094;6.996;2023-09-18T03:36:53;20.40;99.90
46976;DHT22;32724;51.094;6.996;2023-09-18T03:39:19;20.20;99.90
46976;DHT22;32724;51.094;6.996;2023-09-18T03:41:45;20.20;99.90
46976;DHT22;32724;51.094;6.996;2023-09-18T03:44:11;20.10;99.90
46976;DHT22;32724;51.094;6.996;2023-09-18T03:46:36;20.00;99.90
46976;DHT22;32724;51.094;6.996;2023-09-18T03:49:02;20.00;99.90
46976;DHT22;32724;51.094;6.996;2023-09-18T03:53:58;19.90;99.90
46976;DHT22;32724;51.094;6.996;2023-09-18T03:56:23;19.90;99.90
46976;DHT22;32724;51.094;6.996;2023-09-18T03:58:49;20.00;99.90
46976;DHT22;32724;51.094;6.996;2023-09-18T04:01:15;20.00;99.90
46976;DHT22;32724;51.094;6.996;2023-09-18T04:03:41;20.00;99.90
46976;DHT22;32724;51.094;6.996;2023-09-18T04:06:07;20.00;99.90
46976;DHT22;32724;51.094;6.996;2023-09-18T04:08:32;20.00;99.90
46976;DHT22;32724;51.094;6.996;2023-09-18T04:10:58;20.10;99.90
46976;DHT22;32724;51.094;6.996;2023-09-18T04:13:24;20.00;99.90
46976;DHT22;32724;51.094;6.996;2023-09-18T04:15:50;20.10;99.90
46976;DHT22;32724;51.094;6.996;2023-09-18T04:18:16;20.10;99.90
46976;DHT22;32724;51.094;6.996;2023-09-18T04:20:41;19.90;99.90
46976;DHT22;32724;51.094;6.996;2023-09-18T04:25:47;19.80;99.90
46976;DHT22;32724;51.094;6.996;2023-09-18T04:28:17;19.60;99.90
46976;DHT22;32724;51.094;6.996;2023-09-18T04:30:44;19.50;99.90
46976;DHT22;32724;51.094;6.996;2023-09-18T04:33:10;19.40;99.90
46976;DHT22;32724;51.094;6.996;2023-09-18T04:35:38;19.30;99.90
46976;DHT22;32724;51.094;6.996;2023-09-18T04:38:06;19.20;99.90
46976;DHT22;32724;51.094;6.996;2023-09-18T04:40:31;19.00;99.90
46976;DHT22;32724;51.094;6.996;2023-09-18T04:42:58;19.10;99.90
46976;DHT22;32724;51.094;6.996;2023-09-18T04:45:24;19.30;99.90
46976;DHT22;32724;51.094;6.996;2023-09-18T04:47:50;19.50;99.90
46976;DHT22;32724;51.094;6.996;2023-09-18T04:50:16;19.60;99.90
46976;DHT22;32724;51.094;6.996;2023-09-18T04:52:41;19.60;99.90
46976;DHT22;32724;51.094;6.996;2023-09-18T04:55:08;19.60;99.90
46976;DHT22;32724;51.094;6.996;2023-09-18T04:57:34;19.60;99.90
46976;DHT22;32724;51.094;6.996;2023-09-18T04:59:59;19.60;99.90
46976;DHT22;32724;51.094;6.996;2023-09-18T05:02:25;19.50;99.90
46976;DHT22;32724;51.094;6.996;2023-09-18T05:04:51;19.50;99.90
46976;DHT22;32724;51.094;6.996;2023-09-18T05:07:17;19.50;99.90
46976;DHT22;32724;51.094;6.996;2023-09-18T05:09:43;19.50;99.90
46976;DHT22;32724;51.094;6.996;2023-09-18T05:12:09;19.60;99.90
46976;DHT22;32724;51.094;6.996;2023-09-18T05:14:42;19.60;99.90
46976;DHT22;32724;51.094;6.996;2023-09-18T05:17:10;19.60;99.90
46976;DHT22;32724;51.094;6.996;2023-09-18T05:19:37;19.60;99.90
46976;DHT22;32724;51.094;6.996;2023-09-18T05:22:03;19.60;99.90
46976;DHT22;32724;51.094;6.996;2023-09-18T05:24:28;19.60;99.90
46976;DHT22;32724;51.094;6.996;2023-09-18T05:26:54;19.50;99.90
46976;DHT22;32724;51.094;6.996;2023-09-18T05:29:20;19.50;99.90
46976;DHT22;32724;51.094;6.996;2023-09-18T05:31:46;19.50;99.90
46976;DHT22;32724;51.094;6.996;2023-09-18T05:34:12;19.50;99.90
46976;DHT22;32724;51.094;6.996;2023-09-18T05:36:38;19.50;99.90
46976;DHT22;32724;51.094;6.996;2023-09-18T05:39:03;19.50;99.90
46976;DHT22;32724;51.094;6.996;2023-09-18T05:41:30;19.50;99.90
46976;DHT22;32724;51.094;6.996;2023-09-18T05:43:56;19.50;99.90
46976;DHT22;32724;51.094;6.996;2023-09-18T05:46:22;19.50;99.90
46976;DHT22;32724;51.094;6.996;2023-09-18T05:48:47;19.50;99.90
46976;DHT22;32724;51.094;6.996;2023-09-18T05:51:13;19.50;99.90
46976;DHT22;32724;51.094;6.996;2023-09-18T05:53:38;19.50;99.90
46976;DHT22;32724;51.094;6.996;2023-09-18T05:56:04;19.50;99.90
46976;DHT22;32724;51.094;6.996;2023-09-18T05:58:33;19.50;99.90
46976;DHT22;32724;51.094;6.996;2023-09-18T06:00:59;19.50;99.90
46976;DHT22;32724;51.094;6.996;2023-09-18T06:03:28;19.50;99.90
46976;DHT22;32724;51.094;6.996;2023-09-18T06:05:56;19.50;99.90
46976;DHT22;32724;51.094;6.996;2023-09-18T06:08:21;19.50;99.90
46976;DHT22;32724;51.094;6.996;2023-09-18T06:10:49;19.50;99.90
46976;DHT22;32724;51.094;6.996;2023-09-18T06:13:14;19.60;99.90
46976;DHT22;32724;51.094;6.996;2023-09-18T06:15:40;19.50;99.90
46976;DHT22;32724;51.094;6.996;2023-09-18T06:18:05;19.60;99.90
46976;DHT22;32724;51.094;6.996;2023-09-18T06:20:32;19.60;99.90
46976;DHT22;32724;51.094;6.996;2023-09-18T06:22:57;19.60;99.90
46976;DHT22;32724;51.094;6.996;2023-09-18T06:25:23;19.70;99.90
46976;DHT22;32724;51.094;6.996;2023-09-18T06:27:48;19.70;99.90
46976;DHT22;32724;51.094;6.996;2023-09-18T06:30:14;19.70;99.90
46976;DHT22;32724;51.094;6.996;2023-09-18T06:32:40;19.80;99.90
46976;DHT22;32724;51.094;6.996;2023-09-18T06:35:05;19.90;99.90
46976;DHT22;32724;51.094;6.996;2023-09-18T06:37:31;19.90;99.90
46976;DHT22;32724;51.094;6.996;2023-09-18T06:39:57;20.00;99.90
46976;DHT22;32724;51.094;6.996;2023-09-18T06:42:23;20.00;99.90
46976;DHT22;32724;51.094;6.996;2023-09-18T06:44:48;20.00;99.90
46976;DHT22;32724;51.094;6.996;2023-09-18T06:47:14;20.10;99.90
46976;DHT22;32724;51.094;6.996;2023-09-18T06:49:42;20.10;99.90
46976;DHT22;32724;51.094;6.996;2023-09-18T06:52:09;20.20;99.90
46976;DHT22;32724;51.094;6.996;2023-09-18T06:54:34;20.20;99.90
46976;DHT22;32724;51.094;6.996;2023-09-18T06:57:01;20.30;99.90
46976;DHT22;32724;51.094;6.996;2023-09-18T06:59:28;20.30;99.90
46976;DHT22;32724;51.094;6.996;2023-09-18T07:01:55;20.30;99.90
46976;DHT22;32724;51.094;6.996;2023-09-18T07:04:21;20.40;99.90
46976;DHT22;32724;51.094;6.996;2023-09-18T07:06:46;20.50;99.90
46976;DHT22;32724;51.094;6.996;2023-09-18T07:09:12;20.60;99.90
46976;DHT22;32724;51.094;6.996;2023-09-18T07:11:39;20.70;99.90
46976;DHT22;32724;51.094;6.996;2023-09-18T07:14:04;20.80;99.90
46976;DHT22;32724;51.094;6.996;2023-09-18T07:16:31;20.90;99.90
46976;DHT22;32724;51.094;6.996;2023-09-18T07:18:56;21.00;99.90
46976;DHT22;32724;51.094;6.996;2023-09-18T07:21:22;21.10;99.90
46976;DHT22;32724;51.094;6.996;2023-09-18T07:23:47;21.20;99.90
46976;DHT22;32724;51.094;6.996;2023-09-18T07:26:13;21.40;99.90
46976;DHT22;32724;51.094;6.996;2023-09-18T07:28:39;21.50;99.90
46976;DHT22;32724;51.094;6.996;2023-09-18T07:31:06;21.60;99.90
46976;DHT22;32724;51.094;6.996;2023-09-18T07:33:32;21.80;99.90
46976;DHT22;32724;51.094;6.996;2023-09-18T07:35:58;21.90;99.90
46976;DHT22;32724;51.094;6.996;2023-09-18T07:38:23;22.00;99.90
46976;DHT22;32724;51.094;6.996;2023-09-18T07:40:50;21.90;99.90
46976;DHT22;32724;51.094;6.996;2023-09-18T07:43:16;21.80;99.90
46976;DHT22;32724;51.094;6.996;2023-09-18T07:45:42;21.80;99.90
46976;DHT22;32724;51.094;6.996;2023-09-18T07:48:08;21.90;99.90
46976;DHT22;32724;51.094;6.996;2023-09-18T07:50:34;21.90;99.90
46976;DHT22;32724;51.094;6.996;2023-09-18T07:53:01;21.80;99.90
46976;DHT22;32724;51.094;6.996;2023-09-18T07:55:27;22.00;99.90
46976;DHT22;32724;51.094;6.996;2023-09-18T07:57:53;22.10;99.90
46976;DHT22;32724;51.094;6.996;2023-09-18T08:00:19;21.90;99.90
46976;DHT22;32724;51.094;6.996;2023-09-18T08:02:48;22.00;99.90
46976;DHT22;32724;51.094;6.996;2023-09-18T08:05:16;22.00;99.90
46976;DHT22;32724;51.094;6.996;2023-09-18T08:07:42;22.00;99.90
46976;DHT22;32724;51.094;6.996;2023-09-18T08:10:08;22.10;99.90
46976;DHT22;32724;51.094;6.996;2023-09-18T08:12:37;22.10;99.90
46976;DHT22;32724;51.094;6.996;2023-09-18T08:15:02;22.00;99.90
46976;DHT22;32724;51.094;6.996;2023-09-18T08:17:28;21.90;99.90
46976;DHT22;32724;51.094;6.996;2023-09-18T08:19:54;21.80;99.90
46976;DHT22;32724;51.094;6.996;2023-09-18T08:22:20;21.80;99.90
46976;DHT22;32724;51.094;6.996;2023-09-18T08:24:47;21.80;99.90
46976;DHT22;32724;51.094;6.996;2023-09-18T08:27:14;21.90;99.90
46976;DHT22;32724;51.094;6.996;2023-09-18T08:29:43;22.00;99.90
46976;DHT22;32724;51.094;6.996;2023-09-18T08:32:09;22.10;99.90
46976;DHT22;32724;51.094;6.996;2023-09-18T08:34:34;22.20;99.90
46976;DHT22;32724;51.094;6.996;2023-09-18T08:37:01;22.20;99.90
46976;DHT22;32724;51.094;6.996;2023-09-18T08:39:27;22.10;99.90
46976;DHT22;32724;51.094;6.996;2023-09-18T08:41:58;22.20;99.90
46976;DHT22;32724;51.094;6.996;2023-09-18T08:44:26;22.10;99.90
46976;DHT22;32724;51.094;6.996;2023-09-18T08:46:56;22.20;99.90
46976;DHT22;32724;51.094;6.996;2023-09-18T08:49:25;22.20;99.90
46976;DHT22;32724;51.094;6.996;2023-09-18T08:51:54;22.40;99.90
46976;DHT22;32724;51.094;6.996;2023-09-18T08:54:23;22.60;99.90
46976;DHT22;32724;51.094;6.996;2023-09-18T08:56:50;22.60;99.90
46976;DHT22;32724;51.094;6.996;2023-09-18T08:59:16;22.50;99.90
46976;DHT22;32724;51.094;6.996;2023-09-18T09:01:42;22.50;99.90
46976;DHT22;32724;51.094;6.996;2023-09-18T09:04:07;22.40;99.90
46976;DHT22;32724;51.094;6.996;2023-09-18T09:06:33;22.40;99.90
46976;DHT22;32724;51.094;6.996;2023-09-18T09:08:59;22.60;99.90
46976;DHT22;32724;51.094;6.996;2023-09-18T09:11:24;22.80;99.90
46976;DHT22;32724;51.094;6.996;2023-09-18T09:14:10;22.90;99.90
46976;DHT22;32724;51.094;6.996;2023-09-18T09:16:51;22.90;99.90
46976;DHT22;32724;51.094;6.996;2023-09-18T09:19:17;22.80;99.90
46976;DHT22;32724;51.094;6.996;2023-09-18T09:21:45;22.80;99.90
46976;DHT22;32724;51.094;6.996;2023-09-18T09:24:12;22.60;99.90
46976;DHT22;32724;51.094;6.996;2023-09-18T09:26:40;22.60;99.90
46976;DHT22;32724;51.094;6.996;2023-09-18T09:29:17;22.50;99.90
46976;DHT22;32724;51.094;6.996;2023-09-18T09:31:44;22.60;99.90
46976;DHT22;32724;51.094;6.996;2023-09-18T09:34:10;22.70;99.90
46976;DHT22;32724;51.094;6.996;2023-09-18T09:36:36;22.80;99.90
46976;DHT22;32724;51.094;6.996;2023-09-18T09:39:02;23.00;99.90
46976;DHT22;32724;51.094;6.996;2023-09-18T09:41:31;23.00;99.90
46976;DHT22;32724;51.094;6.996;2023-09-18T09:43:57;23.10;99.90
46976;DHT22;32724;51.094;6.996;2023-09-18T09:46:23;23.20;99.90
46976;DHT22;32724;51.094;6.996;2023-09-18T09:49:06;23.20;99.90
46976;DHT22;32724;51.094;6.996;2023-09-18T09:51:32;23.30;99.90
46976;DHT22;32724;51.094;6.996;2023-09-18T09:53:59;23.40;99.90
46976;DHT22;32724;51.094;6.996;2023-09-18T09:56:47;23.20;99.90
46976;DHT22;32724;51.094;6.996;2023-09-18T09:59:15;23.40;99.90
46976;DHT22;32724;51.094;6.996;2023-09-18T10:01:41;23.30;99.90
46976;DHT22;32724;51.094;6.996;2023-09-18T10:04:14;23.30;99.90
46976;DHT22;32724;51.094;6.996;2023-09-18T10:09:41;23.40;99.90
46976;DHT22;32724;51.094;6.996;2023-09-18T10:12:11;23.40;99.90
46976;DHT22;32724;51.094;6.996;2023-09-18T10:14:37;23.40;99.90
46976;DHT22;32724;51.094;6.996;2023-09-18T10:17:15;23.40;99.90
46976;DHT22;32724;51.094;6.996;2023-09-18T10:20:01;23.60;99.90
46976;DHT22;32724;51.094;6.996;2023-09-18T10:22:38;23.80;99.90
46976;DHT22;32724;51.094;6.996;2023-09-18T10:25:28;24.00;99.90
46976;DHT22;32724;51.094;6.996;2023-09-18T10:27:55;24.00;99.90
46976;DHT22;32724;51.094;6.996;2023-09-18T10:30:27;24.10;99.90
46976;DHT22;32724;51.094;6.996;2023-09-18T10:32:55;24.10;99.90
46976;DHT22;32724;51.094;6.996;2023-09-18T10:35:22;24.10;99.90
46976;DHT22;32724;51.094;6.996;2023-09-18T10:37:49;24.20;99.90
46976;DHT22;32724;51.094;6.996;2023-09-18T10:40:17;24.40;99.90
46976;DHT22;32724;51.094;6.996;2023-09-18T10:42:42;24.30;99.90
46976;DHT22;32724;51.094;6.996;2023-09-18T10:45:11;24.20;99.90
46976;DHT22;32724;51.094;6.996;2023-09-18T10:47:42;24.10;99.90
46976;DHT22;32724;51.094;6.996;2023-09-18T10:50:10;24.20;99.90
46976;DHT22;32724;51.094;6.996;2023-09-18T10:52:42;24.40;99.90
46976;DHT22;32724;51.094;6.996;2023-09-18T10:55:11;24.50;99.90
46976;DHT22;32724;51.094;6.996;2023-09-18T10:57:37;24.60;99.90
46976;DHT22;32724;51.094;6.996;2023-09-18T11:00:04;24.60;99.90
46976;DHT22;32724;51.094;6.996;2023-09-18T11:02:40;24.70;99.90
46976;DHT22;32724;51.094;6.996;2023-09-18T11:05:06;24.70;99.90
46976;DHT22;32724;51.094;6.996;2023-09-18T11:07:32;24.40;99.90
46976;DHT22;32724;51.094;6.996;2023-09-18T11:09:57;24.30;99.90
46976;DHT22;32724;51.094;6.996;2023-09-18T11:12:43;24.10;99.90
46976;DHT22;32724;51.094;6.996;2023-09-18T11:15:09;24.10;99.90
46976;DHT22;32724;51.094;6.996;2023-09-18T11:17:59;24.30;99.90
46976;DHT22;32724;51.094;6.996;2023-09-18T11:20:25;24.60;99.90
46976;DHT22;32724;51.094;6.996;2023-09-18T11:25:38;24.70;99.90
46976;DHT22;32724;51.094;6.996;2023-09-18T11:28:06;24.90;99.90
46976;DHT22;32724;51.094;6.996;2023-09-18T11:30:34;25.10;99.90
46976;DHT22;32724;51.094;6.996;2023-09-18T11:33:03;25.10;99.90
46976;DHT22;32724;51.094;6.996;2023-09-18T11:35:29;25.30;99.90
46976;DHT22;32724;51.094;6.996;2023-09-18T11:38:10;25.40;99.90
46976;DHT22;32724;51.094;6.996;2023-09-18T11:40:38;25.30;99.90
46976;DHT22;32724;51.094;6.996;2023-09-18T11:43:26;25.50;99.90
46976;DHT22;32724;51.094;6.996;2023-09-18T11:45:53;25.60;99.90
46976;DHT22;32724;51.094;6.996;2023-09-18T11:48:20;25.50;99.90
46976;DHT22;32724;51.094;6.996;2023-09-18T11:50:47;25.40;99.90
46976;DHT22;32724;51.094;6.996;2023-09-18T11:53:17;25.40;99.90
46976;DHT22;32724;51.094;6.996;2023-09-18T11:55:43;25.40;99.90
46976;DHT22;32724;51.094;6.996;2023-09-18T11:58:09;25.40;99.90
46976;DHT22;32724;51.094;6.996;2023-09-18T12:00:35;25.50;99.90
46976;DHT22;32724;51.094;6.996;2023-09-18T12:03:20;25.60;99.90
46976;DHT22;32724;51.094;6.996;2023-09-18T12:06:00;25.40;99.90
46976;DHT22;32724;51.094;6.996;2023-09-18T12:08:28;25.30;99.90
46976;DHT22;32724;51.094;6.996;2023-09-18T12:10:56;25.50;99.90
46976;DHT22;32724;51.094;6.996;2023-09-18T12:13:24;25.60;99.90
46976;DHT22;32724;51.094;6.996;2023-09-18T12:15:51;25.90;99.90
46976;DHT22;32724;51.094;6.996;2023-09-18T12:18:20;26.30;99.90
46976;DHT22;32724;51.094;6.996;2023-09-18T12:20:48;26.20;99.90
46976;DHT22;32724;51.094;6.996;2023-09-18T12:23:15;26.10;99.90
46976;DHT22;32724;51.094;6.996;2023-09-18T12:25:41;26.00;99.90
46976;DHT22;32724;51.094;6.996;2023-09-18T12:28:09;25.90;99.90
46976;DHT22;32724;51.094;6.996;2023-09-18T12:30:35;25.90;99.90
46976;DHT22;32724;51.094;6.996;2023-09-18T12:33:01;26.30;99.90
46976;DHT22;32724;51.094;6.996;2023-09-18T12:35:27;26.60;99.90
46976;DHT22;32724;51.094;6.996;2023-09-18T12:37:57;26.70;99.90
46976;DHT22;32724;51.094;6.996;2023-09-18T12:40:27;26.50;99.90
46976;DHT22;32724;51.094;6.996;2023-09-18T12:42:55;26.30;99.90
46976;DHT22;32724;51.094;6.996;2023-09-18T12:45:22;26.30;99.90
46976;DHT22;32724;51.094;6.996;2023-09-18T12:47:49;26.20;99.90
46976;DHT22;32724;51.094;6.996;2023-09-18T12:50:15;26.30;99.90
46976;DHT22;32724;51.094;6.996;2023-09-18T12:52:41;26.30;99.90
46976;DHT22;32724;51.094;6.996;2023-09-18T12:55:08;26.10;99.90
46976;DHT22;32724;51.094;6.996;2023-09-18T12:57:34;25.90;99.90
46976;DHT22;32724;51.094;6.996;2023-09-18T12:59:59;25.80;99.90
46976;DHT22;32724;51.094;6.996;2023-09-18T13:02:36;25.80;99.90
46976;DHT22;32724;51.094;6.996;2023-09-18T13:05:02;25.80;99.90
46976;DHT22;32724;51.094;6.996;2023-09-18T13:07:29;25.70;99.90
46976;DHT22;32724;51.094;6.996;2023-09-18T13:10:03;25.60;99.90
46976;DHT22;32724;51.094;6.996;2023-09-18T13:12:46;25.60;99.90
46976;DHT22;32724;51.094;6.996;2023-09-18T13:15:13;25.80;99.90
46976;DHT22;32724;51.094;6.996;2023-09-18T13:17:44;25.80;99.60
46976;DHT22;32724;51.094;6.996;2023-09-18T13:20:12;25.90;99.20
46976;DHT22;32724;51.094;6.996;2023-09-18T13:22:39;25.80;99.60
46976;DHT22;32724;51.094;6.996;2023-09-18T13:25:09;25.60;98.40
46976;DHT22;32724;51.094;6.996;2023-09-18T13:27:38;25.30;98.80
46976;DHT22;32724;51.094;6.996;2023-09-18T13:30:06;25.20;98.40
46976;DHT22;32724;51.094;6.996;2023-09-18T13:32:34;25.30;98.50
46976;DHT22;32724;51.094;6.996;2023-09-18T13:35:01;25.40;99.50
46976;DHT22;32724;51.094;6.996;2023-09-18T13:37:26;25.50;98.80
46976;DHT22;32724;51.094;6.996;2023-09-18T13:39:54;25.50;98.40
46976;DHT22;32724;51.094;6.996;2023-09-18T13:42:20;25.60;98.20
46976;DHT22;32724;51.094;6.996;2023-09-18T13:44:45;25.70;98.90
46976;DHT22;32724;51.094;6.996;2023-09-18T13:47:12;25.80;98.00
46976;DHT22;32724;51.094;6.996;2023-09-18T13:49:38;25.90;98.00
46976;DHT22;32724;51.094;6.996;2023-09-18T13:52:04;25.90;96.90
46976;DHT22;32724;51.094;6.996;2023-09-18T13:54:30;25.80;97.00
46976;DHT22;32724;51.094;6.996;2023-09-18T13:56:55;25.70;96.80
46976;DHT22;32724;51.094;6.996;2023-09-18T13:59:21;25.60;96.70
46976;DHT22;32724;51.094;6.996;2023-09-18T14:01:47;25.50;96.90
46976;DHT22;32724;51.094;6.996;2023-09-18T14:04:12;25.40;97.90
46976;DHT22;32724;51.094;6.996;2023-09-18T14:06:38;25.40;97.00
46976;DHT22;32724;51.094;6.996;2023-09-18T14:09:04;25.30;97.50
46976;DHT22;32724;51.094;6.996;2023-09-18T14:11:31;25.30;97.20
46976;DHT22;32724;51.094;6.996;2023-09-18T14:13:57;25.20;97.80
46976;DHT22;32724;51.094;6.996;2023-09-18T14:16:23;25.10;98.30
46976;DHT22;32724;51.094;6.996;2023-09-18T14:18:50;25.10;97.40
46976;DHT22;32724;51.094;6.996;2023-09-18T14:21:15;25.10;97.50
46976;DHT22;32724;51.094;6.996;2023-09-18T14:23:41;25.10;97.30
46976;DHT22;32724;51.094;6.996;2023-09-18T14:26:07;25.20;96.60
46976;DHT22;32724;51.094;6.996;2023-09-18T14:28:32;25.10;96.90
46976;DHT22;32724;51.094;6.996;2023-09-18T14:30:58;25.10;96.90
46976;DHT22;32724;51.094;6.996;2023-09-18T14:33:23;25.10;97.50
46976;DHT22;32724;51.094;6.996;2023-09-18T14:35:49;25.20;97.60
46976;DHT22;32724;51.094;6.996;2023-09-18T14:38:15;25.30;97.00
46976;DHT22;32724;51.094;6.996;2023-09-18T14:40:41;25.20;96.70
46976;DHT22;32724;51.094;6.996;2023-09-18T14:43:07;25.20;97.30
46976;DHT22;32724;51.094;6.996;2023-09-18T14:45:33;25.20;97.10
46976;DHT22;32724;51.094;6.996;2023-09-18T14:48:00;25.30;96.80
46976;DHT22;32724;51.094;6.996;2023-09-18T14:50:25;25.30;96.00
46976;DHT22;32724;51.094;6.996;2023-09-18T14:52:51;25.20;94.90
46976;DHT22;32724;51.094;6.996;2023-09-18T14:55:17;25.20;93.70
46976;DHT22;32724;51.094;6.996;2023-09-18T14:57:42;25.10;94.10
46976;DHT22;32724;51.094;6.996;2023-09-18T15:00:08;25.10;94.60
46976;DHT22;32724;51.094;6.996;2023-09-18T15:02:34;25.20;94.90
46976;DHT22;32724;51.094;6.996;2023-09-18T15:05:00;25.20;95.50
46976;DHT22;32724;51.094;6.996;2023-09-18T15:07:26;25.20;95.10
46976;DHT22;32724;51.094;6.996;2023-09-18T15:09:52;25.30;94.80
46976;DHT22;32724;51.094;6.996;2023-09-18T15:12:18;25.40;95.00
46976;DHT22;32724;51.094;6.996;2023-09-18T15:14:44;25.60;94.90
46976;DHT22;32724;51.094;6.996;2023-09-18T15:17:09;25.60;94.60
46976;DHT22;32724;51.094;6.996;2023-09-18T15:19:35;25.60;94.40
46976;DHT22;32724;51.094;6.996;2023-09-18T15:22:00;25.60;94.90
46976;DHT22;32724;51.094;6.996;2023-09-18T15:24:27;25.50;95.50
46976;DHT22;32724;51.094;6.996;2023-09-18T15:26:52;25.40;95.00
46976;DHT22;32724;51.094;6.996;2023-09-18T15:29:18;25.40;95.50
46976;DHT22;32724;51.094;6.996;2023-09-18T15:31:43;25.50;94.80
46976;DHT22;32724;51.094;6.996;2023-09-18T15:34:11;25.40;95.40
46976;DHT22;32724;51.094;6.996;2023-09-18T15:36:37;25.30;94.70
46976;DHT22;32724;51.094;6.996;2023-09-18T15:39:03;25.10;94.90
46976;DHT22;32724;51.094;6.996;2023-09-18T15:41:28;25.00;95.10